This is the latest recevied weather packets stored in our database for station/object DL3NDS-WX. If no packets are shown the sender has not sent any weather packets the latest 1 day(s).
| Time | Temp. | Humidity | Pressure | Rain* | Wind** | Luminosity | Snow |
|---|---|---|---|---|---|---|---|
| 1777985238 | 20.56° C | 58% | 1008.5 hPa | 0 mm | 1.79 m/s, 318° | 223 W/m² | - |
| 1777985177 | 20.56° C | 58% | 1008.5 hPa | 0 mm | 1.79 m/s, 11° | 239 W/m² | - |
| 1777985113 | 21.11° C | 57% | 1008.5 hPa | 0 mm | 1.79 m/s, 43° | 315 W/m² | - |
| 1777985052 | 21.11° C | 57% | 1008.5 hPa | 0 mm | 1.34 m/s, 346° | 315 W/m² | - |
| 1777984992 | 21.67° C | 58% | 1008.4 hPa | 0 mm | 1.34 m/s, 335° | 647 W/m² | - |
| 1777984930 | 21.67° C | 58% | 1008.4 hPa | 0 mm | 1.34 m/s, 6° | 647 W/m² | - |
| 1777984868 | 21.11° C | 57% | 1008.4 hPa | 0 mm | 0.89 m/s, 322° | 647 W/m² | - |
| 1777984809 | 21.11° C | 59% | 1008.5 hPa | 0 mm | 0.89 m/s, 331° | 659 W/m² | - |
| 1777984748 | 21.11° C | 58% | 1008.5 hPa | 0 mm | 0.89 m/s, 327° | 671 W/m² | - |
| 1777984686 | 21.11° C | 58% | 1008.4 hPa | 0 mm | 1.79 m/s, 318° | 671 W/m² | - |
| 1777984626 | 21.11° C | 58% | 1008.4 hPa | 0 mm | 1.34 m/s, 326° | 671 W/m² | - |
| 1777984563 | 20.56° C | 57% | 1008.5 hPa | 0 mm | 1.79 m/s, 356° | 649 W/m² | - |
| 1777984503 | 20.56° C | 58% | 1008.5 hPa | 0 mm | 1.79 m/s, 337° | 742 W/m² | - |
| 1777984441 | 20.56° C | 58% | 1008.5 hPa | 0 mm | 2.24 m/s, 340° | 803 W/m² | - |
| 1777984389 | 20° C | 58% | 1008.5 hPa | 0 mm | 1.79 m/s, 334° | 253 W/m² | - |
| 1777984318 | 20° C | 58% | 1008.5 hPa | 0 mm | 1.79 m/s, 319° | 253 W/m² | - |
| 1777984258 | 20° C | 57% | 1008.5 hPa | 0 mm | 2.24 m/s, 324° | 253 W/m² | - |
| 1777984197 | 20° C | 58% | 1008.5 hPa | 0 mm | 2.68 m/s, 315° | 253 W/m² | - |
| 1777984132 | 20° C | 58% | 1008.5 hPa | 0 mm | 2.24 m/s, 313° | 167 W/m² | - |
| 1777984070 | 20° C | 58% | 1008.5 hPa | 0 mm | 2.24 m/s, 323° | 153 W/m² | - |
| 1777984010 | 20° C | 58% | 1008.5 hPa | 0 mm | 2.24 m/s, 322° | 142 W/m² | - |
| 1777983951 | 20° C | 57% | 1008.5 hPa | 0 mm | 2.68 m/s, 339° | 132 W/m² | - |
| 1777983887 | 20° C | 58% | 1008.5 hPa | 0 mm | 2.24 m/s, 322° | 125 W/m² | - |
| 1777983825 | 20° C | 58% | 1008.5 hPa | 0 mm | 0.89 m/s, 331° | 116 W/m² | - |
| 1777983763 | 20° C | 59% | 1008.5 hPa | 0 mm | 0.89 m/s, 330° | 116 W/m² | - |
* Rain latest hour (hover to see other rain measurements)
** Current wind speed in m/s (hover to see current wind gust speed)